createdAt,value
2023-01-02T17:59:30.738Z,73.33
2023-01-02T18:01:59.658Z,73.03
2023-01-02T18:04:29.644Z,70.97
2023-01-02T18:06:56.280Z,70.42
2023-01-02T18:09:24.958Z,70.37
2023-01-02T18:11:51.736Z,71.20
2023-01-02T18:14:22.420Z,70.41
2023-01-02T18:16:51.695Z,70.38
2023-01-02T18:19:18.192Z,71.76
2023-01-02T18:21:44.575Z,71.85
2023-01-02T18:24:11.005Z,71.31
2023-01-02T18:26:39.333Z,71.63
2023-01-02T18:29:16.749Z,71.55
2023-01-02T18:31:43.244Z,72.95
2023-01-02T18:34:09.637Z,72.35
2023-01-02T18:36:36.001Z,73.69
2023-01-02T18:39:02.377Z,72.99
2023-01-02T18:41:28.749Z,71.54
2023-01-02T18:43:55.112Z,71.71
2023-01-02T18:46:21.529Z,71.97
2023-01-02T18:48:47.930Z,72.58
2023-01-02T18:51:14.278Z,73.52
2023-01-02T18:53:40.658Z,73.77
2023-01-02T18:56:07.026Z,74.54
2023-01-02T18:58:33.387Z,77.01
2023-01-02T19:00:59.816Z,74.15
2023-01-02T19:03:26.292Z,73.97
2023-01-02T19:05:52.672Z,74.18
2023-01-02T19:08:19.036Z,74.94
2023-01-02T19:10:45.358Z,74.46
2023-01-02T19:13:11.708Z,73.83
2023-01-02T19:15:38.091Z,74.28
2023-01-02T19:18:04.395Z,75.57
2023-01-02T19:20:30.700Z,73.82
2023-01-02T19:22:57.019Z,74.07
2023-01-02T19:25:23.329Z,73.91
2023-01-02T19:27:49.627Z,72.25
2023-01-02T19:30:20.603Z,71.98
2023-01-02T19:32:47.153Z,71.31
2023-01-02T19:35:13.465Z,70.94
2023-01-02T19:37:39.787Z,71.58
2023-01-02T19:40:06.093Z,70.53
2023-01-02T19:42:32.407Z,71.62
2023-01-02T19:44:58.730Z,72.30
2023-01-02T19:47:25.055Z,72.46
2023-01-02T19:49:51.467Z,72.59
2023-01-02T19:52:17.785Z,73.23
2023-01-02T19:54:44.092Z,71.79
2023-01-02T19:57:10.417Z,73.18
2023-01-02T19:59:43.966Z,73.80
2023-01-02T20:02:10.562Z,74.30
2023-01-02T20:04:37.170Z,74.00
2023-01-02T20:07:03.511Z,74.48
2023-01-02T20:09:29.871Z,75.26
2023-01-02T20:11:56.209Z,75.94
2023-01-02T20:14:22.575Z,75.90
2023-01-02T20:16:48.908Z,75.35
2023-01-02T20:19:15.237Z,74.85
2023-01-02T20:21:41.572Z,73.58
2023-01-02T20:24:07.900Z,74.19
2023-01-02T20:26:34.229Z,74.80
2023-01-02T20:29:00.539Z,75.63
2023-01-02T20:31:26.976Z,75.30
2023-01-02T20:33:53.337Z,75.63
2023-01-02T20:36:19.693Z,74.37
2023-01-02T20:38:46.048Z,74.84
2023-01-02T20:41:12.424Z,76.63
2023-01-02T20:43:38.776Z,76.01
2023-01-02T20:46:05.207Z,75.38
2023-01-02T20:48:31.620Z,73.95
2023-01-02T20:50:58.021Z,74.94
2023-01-02T20:53:24.354Z,75.41
2023-01-02T20:55:50.802Z,75.63
2023-01-02T20:58:17.188Z,74.50
2023-01-02T21:00:43.679Z,74.88
2023-01-02T21:03:10.345Z,74.48
2023-01-02T21:08:23.893Z,78.74
2023-01-02T21:10:52.770Z,78.71
2023-01-02T21:16:05.579Z,80.28
2023-01-02T21:18:34.997Z,79.83
2023-01-02T21:21:10.466Z,80.77
2023-01-02T21:23:36.948Z,80.70
2023-01-02T21:26:12.083Z,78.35
2023-01-02T21:28:38.447Z,78.53
2023-01-02T21:31:04.913Z,77.48
2023-01-02T21:33:31.458Z,75.71
2023-01-02T21:35:57.913Z,75.13
2023-01-02T21:38:24.258Z,73.24
2023-01-02T21:40:50.692Z,74.72
2023-01-02T21:43:17.115Z,74.17
2023-01-02T21:45:43.551Z,74.88
2023-01-02T21:48:10.048Z,74.75
2023-01-02T21:50:36.570Z,74.82
2023-01-02T21:53:04.195Z,75.12
2023-01-02T21:55:30.594Z,74.26
2023-01-02T21:58:13.695Z,72.99
2023-01-02T22:00:40.488Z,72.85
2023-01-02T22:03:07.048Z,75.06
2023-01-02T22:05:33.614Z,74.81
2023-01-02T22:08:00.001Z,73.13
2023-01-02T22:10:26.525Z,74.88
2023-01-02T22:12:52.931Z,74.39
2023-01-02T22:15:19.354Z,73.66
2023-01-02T22:17:45.789Z,72.67
2023-01-02T22:20:12.401Z,73.52
2023-01-02T22:22:38.837Z,72.28
2023-01-02T22:25:05.368Z,73.53
2023-01-02T22:27:31.758Z,72.43
2023-01-02T22:32:44.441Z,73.35
2023-01-02T22:35:10.819Z,72.78
2023-01-02T22:37:37.182Z,72.45
2023-01-02T22:40:03.547Z,72.82
2023-01-02T22:42:59.087Z,73.36
2023-01-02T22:45:16.580Z,70.84
2023-01-02T22:47:42.958Z,71.98
2023-01-02T22:50:12.276Z,77.31
2023-01-02T22:52:46.491Z,75.19
2023-01-02T22:55:12.856Z,73.32
2023-01-02T22:57:39.242Z,73.11
2023-01-02T23:00:05.651Z,71.85
2023-01-02T23:02:31.979Z,71.04
2023-01-02T23:04:58.370Z,72.37
2023-01-02T23:07:25.049Z,73.52
2023-01-02T23:09:51.583Z,71.93
2023-01-02T23:12:18.043Z,73.49
2023-01-02T23:14:44.532Z,73.42
2023-01-02T23:17:10.889Z,72.37
2023-01-02T23:19:37.467Z,73.18
2023-01-02T23:22:03.885Z,72.25
2023-01-02T23:24:32.342Z,72.61
2023-01-02T23:26:58.891Z,72.76
2023-01-02T23:29:25.236Z,72.04
2023-01-02T23:31:51.669Z,77.56
2023-01-02T23:34:18.103Z,76.29
2023-01-02T23:36:44.484Z,74.82
2023-01-02T23:39:10.908Z,72.47
2023-01-02T23:44:26.584Z,71.55
2023-01-02T23:46:53.036Z,70.70
2023-01-02T23:49:19.371Z,71.42
2023-01-02T23:51:45.802Z,70.80
2023-01-02T23:54:13.662Z,70.65
2023-01-02T23:56:40.187Z,70.81
2023-01-02T23:59:06.595Z,70.46
